KDET/DET METAR and TAF weather

Enter ICAO airport designator
Station Type Date Time Source
KDET METAR 2020/01/21 17:53 UTC NOAA

KDET 211753Z 28007KT 10SM CLR M03/M11 A3054 RMK AO2 SLP352 T10281106 11028 21067 58015


Station Type Date Time Source
KDET Decoded METAR 2020/01/21 17:53 UTC NOAA

DETROIT CITY AIRPORT, MI, United States (KDET) 42-25N 083-01W 190M
Jan 21, 2020 - 12:53 PM EST / 2020.01.21 1753 UTC
Wind: from the W (280 degrees) at 8 MPH (7 KT):0
Visibility: 10 mile(s):0
Sky conditions: clear
Temperature: 27.0 F (-2.8 C)
Windchill: 19 F (-7 C):1
Dew Point: 12.9 F (-10.6 C)
Relative Humidity: 54%
Pressure (altimeter): 30.54 in. Hg (1034 hPa)
Pressure tendency: 0.04 inches (1.5 hPa) lower than three hours ago
ob: KDET 211753Z 28007KT 10SM CLR M03/M11 A3054 RMK AO2 SLP352 T10281106 11028 21067 58015
cycle: 18

Station Type Date Time Source
KDET TAF 2020/01/21 18:22 UTC NOAA

TAF KDET 211720Z 2118/2218 27011KT P6SM FEW250
FM212200 25008KT P6SM BKN030
FM220200 23006KT P6SM SCT030 SCT250

Example: see airport list